Time;durP1;ratioP1;P1;durP2;ratioP2;P2;SDS_P1;SDS_P2;PMS_P1;PMS_P2;Temp;Humidity;BMP_temperature;BMP_pressure;BME280_temperature;BME280_humidity;BME280_pressure;Samples;Min_cycle;Max_cycle;Signal;HPM_P1;HPM_P2
2023/03/31 00:03:01;;;;;;;;;;;20.70;36.60;;;;;;8332226;28;19960;-45
2023/03/31 00:07:04;;;;;;;;;;;20.70;36.00;;;;;;8331860;28;19924;-45
2023/03/31 00:11:08;;;;;;;;;;;20.60;36.00;;;;;;8330059;28;19924;-44
2023/03/31 00:15:09;;;;;;;;;;;20.60;36.00;;;;;;8331551;28;19917;-44
2023/03/31 00:19:16;;;;;;;;;;;20.60;36.00;;;;;;8331288;28;19913;-44
2023/03/31 00:23:17;;;;;;;;;;;20.60;36.00;;;;;;8331130;28;20302;-44
2023/03/31 00:27:18;;;;;;;;;;;20.60;36.00;;;;;;8343183;28;19925;-44
2023/03/31 00:31:18;;;;;;;;;;;20.50;36.00;;;;;;8342211;28;19962;-44
2023/03/31 00:35:19;;;;;;;;;;;20.60;36.10;;;;;;8330354;28;19917;-45
2023/03/31 00:39:19;;;;;;;;;;;20.60;36.10;;;;;;8330739;28;19924;-45
2023/03/31 00:43:41;;;;;;;;;;;20.60;36.10;;;;;;8330946;28;19927;-44
2023/03/31 00:47:43;;;;;;;;;;;20.60;36.10;;;;;;8329812;28;19927;-45
2023/03/31 00:51:44;;;;;;;;;;;20.50;36.10;;;;;;8330343;28;20290;-44
2023/03/31 00:55:47;;;;;;;;;;;20.50;36.10;;;;;;8330372;28;20004;-44
2023/03/31 00:59:49;;;;;;;;;;;20.50;36.60;;;;;;8329841;28;20299;-45
2023/03/31 01:03:51;;;;;;;;;;;20.50;36.10;;;;;;8329374;28;19925;-44
2023/03/31 01:07:52;;;;;;;;;;;20.50;36.10;;;;;;8330187;28;19917;-45
2023/03/31 01:11:53;;;;;;;;;;;20.50;36.20;;;;;;8329521;28;19957;-44
2023/03/31 01:15:53;;;;;;;;;;;20.50;36.20;;;;;;8329976;28;19944;-45
2023/03/31 01:20:12;;;;;;;;;;;20.50;36.20;;;;;;8329967;28;19922;-44
2023/03/31 01:24:30;;;;;;;;;;;20.40;36.20;;;;;;8336550;28;19928;-45
2023/03/31 01:28:51;;;;;;;;;;;20.50;36.20;;;;;;8336988;28;19994;-43
2023/03/31 01:32:51;;;;;;;;;;;20.40;36.20;;;;;;8336068;28;19929;-45
2023/03/31 01:36:54;;;;;;;;;;;20.40;36.20;;;;;;8336446;28;19991;-44
2023/03/31 01:41:30;;;;;;;;;;;20.40;36.30;;;;;;8336368;28;20354;-44
2023/03/31 01:45:51;;;;;;;;;;;20.40;36.30;;;;;;8261995;28;19936;-45
2023/03/31 01:50:04;;;;;;;;;;;20.40;36.30;;;;;;8318199;28;19921;-45
2023/03/31 01:54:25;;;;;;;;;;;20.40;36.30;;;;;;8336056;28;19920;-44
2023/03/31 01:58:33;;;;;;;;;;;20.40;36.30;;;;;;8335552;28;19917;-45
2023/03/31 02:02:54;;;;;;;;;;;20.30;36.30;;;;;;8335115;28;20396;-45
2023/03/31 02:06:56;;;;;;;;;;;20.30;36.30;;;;;;8334837;28;20245;-45
2023/03/31 02:10:57;;;;;;;;;;;20.30;36.30;;;;;;8335689;28;19920;-46
2023/03/31 02:14:59;;;;;;;;;;;20.30;36.30;;;;;;8334932;28;19998;-45
2023/03/31 02:19:02;;;;;;;;;;;20.30;36.30;;;;;;8368523;28;19917;-44
2023/03/31 02:23:03;;;;;;;;;;;20.30;36.30;;;;;;8337166;28;19956;-45
2023/03/31 02:27:16;;;;;;;;;;;20.30;36.30;;;;;;8334870;28;20016;-46
2023/03/31 02:31:27;;;;;;;;;;;20.30;36.30;;;;;;8334417;28;20012;-46
2023/03/31 02:35:27;;;;;;;;;;;20.30;36.30;;;;;;8333611;28;19971;-45
2023/03/31 02:39:33;;;;;;;;;;;20.30;36.30;;;;;;8335140;28;20306;-46
2023/03/31 02:43:33;;;;;;;;;;;20.20;36.30;;;;;;8334606;28;19929;-45
2023/03/31 02:47:33;;;;;;;;;;;20.20;36.30;;;;;;8333988;28;19991;-45
2023/03/31 02:51:48;;;;;;;;;;;20.20;36.30;;;;;;8334382;28;20290;-45
2023/03/31 02:55:59;;;;;;;;;;;20.30;36.40;;;;;;8334132;28;20382;-47
2023/03/31 03:00:00;;;;;;;;;;;20.20;36.30;;;;;;8333603;28;19991;-45
2023/03/31 03:04:09;;;;;;;;;;;20.20;36.30;;;;;;8333983;28;19929;-45
2023/03/31 03:08:28;;;;;;;;;;;20.20;36.40;;;;;;8333464;28;19921;-45
2023/03/31 03:12:42;;;;;;;;;;;20.20;36.40;;;;;;8333631;28;19921;-45
2023/03/31 03:16:46;;;;;;;;;;;20.20;36.40;;;;;;8333477;28;19920;-46
2023/03/31 03:20:48;;;;;;;;;;;20.20;36.40;;;;;;8333020;28;19921;-45
2023/03/31 03:24:48;;;;;;;;;;;20.20;36.40;;;;;;8333356;28;20375;-45
2023/03/31 03:28:49;;;;;;;;;;;20.20;36.50;;;;;;8333189;28;20004;-45
2023/03/31 03:32:50;;;;;;;;;;;20.20;36.50;;;;;;8332700;28;19921;-44
2023/03/31 03:36:50;;;;;;;;;;;20.20;36.40;;;;;;8332817;28;20019;-45
2023/03/31 03:40:54;;;;;;;;;;;20.20;36.40;;;;;;8332787;28;20496;-45
2023/03/31 03:44:54;;;;;;;;;;;20.20;36.40;;;;;;8332170;28;19932;-46
2023/03/31 03:48:55;;;;;;;;;;;20.20;36.40;;;;;;8332663;28;19917;-45
2023/03/31 03:52:55;;;;;;;;;;;20.20;36.30;;;;;;8332376;28;20406;-46
2023/03/31 03:56:56;;;;;;;;;;;20.20;36.30;;;;;;8331751;28;20371;-45
2023/03/31 04:00:56;;;;;;;;;;;20.20;36.30;;;;;;8332353;28;19913;-46
2023/03/31 04:04:57;;;;;;;;;;;20.20;36.40;;;;;;8330820;28;19925;-46
2023/03/31 04:08:57;;;;;;;;;;;20.20;36.40;;;;;;8331476;28;19917;-45
2023/03/31 04:12:57;;;;;;;;;;;20.20;36.30;;;;;;8331909;28;19920;-45
2023/03/31 04:16:58;;;;;;;;;;;20.30;36.30;;;;;;8331637;28;20338;-46
2023/03/31 04:21:04;;;;;;;;;;;20.40;36.20;;;;;;8330949;28;19918;-46
2023/03/31 04:25:18;;;;;;;;;;;20.50;36.80;;;;;;8331540;28;19928;-45
2023/03/31 04:29:22;;;;;;;;;;;20.60;36.10;;;;;;8331142;28;19921;-46
2023/03/31 04:33:22;;;;;;;;;;;20.70;36.10;;;;;;8331345;28;19917;-46
2023/03/31 04:37:27;;;;;;;;;;;20.70;36.10;;;;;;8331059;28;19924;-46
2023/03/31 04:41:27;;;;;;;;;;;20.80;36.00;;;;;;8330518;28;20378;-45
2023/03/31 04:45:27;;;;;;;;;;;20.90;36.60;;;;;;8330661;28;20004;-46
2023/03/31 04:49:28;;;;;;;;;;;20.90;36.10;;;;;;8330972;28;19979;-46
2023/03/31 04:53:29;;;;;;;;;;;20.90;36.10;;;;;;8330124;28;20044;-47
2023/03/31 04:57:29;;;;;;;;;;;20.90;36.00;;;;;;8330365;28;19917;-46
2023/03/31 05:01:31;;;;;;;;;;;20.90;35.90;;;;;;8330961;28;19917;-49
2023/03/31 05:05:32;;;;;;;;;;;20.90;36.10;;;;;;8330455;28;20419;-46
2023/03/31 05:09:33;;;;;;;;;;;20.90;36.20;;;;;;8330534;28;19913;-46
2023/03/31 05:13:33;;;;;;;;;;;20.90;36.10;;;;;;8330136;28;19971;-45
2023/03/31 05:17:34;;;;;;;;;;;20.90;36.00;;;;;;8329556;28;19917;-45
2023/03/31 05:21:36;;;;;;;;;;;20.90;36.10;;;;;;8330105;28;20299;-45
2023/03/31 05:25:36;;;;;;;;;;;20.90;36.10;;;;;;8329785;28;19922;-45
2023/03/31 05:29:37;;;;;;;;;;;20.80;36.00;;;;;;8329416;28;19920;-45
2023/03/31 05:33:40;;;;;;;;;;;20.80;36.10;;;;;;8329782;28;19944;-45
2023/03/31 05:37:40;;;;;;;;;;;20.80;36.20;;;;;;8329663;28;19978;-45
2023/03/31 05:41:41;;;;;;;;;;;20.80;36.20;;;;;;8329093;28;20271;-45
2023/03/31 05:45:41;;;;;;;;;;;20.80;36.30;;;;;;8329709;28;19928;-46
2023/03/31 05:49:42;;;;;;;;;;;20.80;36.30;;;;;;8329470;28;20322;-45
2023/03/31 05:53:42;;;;;;;;;;;20.80;36.30;;;;;;8329176;28;19917;-45
2023/03/31 05:57:43;;;;;;;;;;;20.80;36.20;;;;;;8329366;28;20374;-45
2023/03/31 06:01:43;;;;;;;;;;;20.80;36.20;;;;;;8329227;28;19921;-46
2023/03/31 06:05:48;;;;;;;;;;;20.80;36.20;;;;;;8329093;28;19921;-45
2023/03/31 06:09:48;;;;;;;;;;;20.80;36.20;;;;;;8335477;28;20336;-45
2023/03/31 06:13:49;;;;;;;;;;;20.80;36.20;;;;;;8335296;28;19917;-45
2023/03/31 06:17:49;;;;;;;;;;;20.90;36.30;;;;;;8334898;28;19960;-45
2023/03/31 06:21:51;;;;;;;;;;;20.90;36.40;;;;;;8335328;28;19917;-46
2023/03/31 06:25:51;;;;;;;;;;;20.90;36.30;;;;;;8335241;28;20309;-46
2023/03/31 06:29:52;;;;;;;;;;;20.90;36.40;;;;;;8334468;28;19921;-45
2023/03/31 06:33:52;;;;;;;;;;;20.90;36.40;;;;;;8334693;28;19917;-45
2023/03/31 06:37:53;;;;;;;;;;;20.90;36.30;;;;;;8334544;28;19917;-45
2023/03/31 06:41:53;;;;;;;;;;;20.90;36.30;;;;;;8334008;28;19917;-45
2023/03/31 06:45:54;;;;;;;;;;;20.90;36.30;;;;;;8316625;28;19960;-44
2023/03/31 06:49:55;;;;;;;;;;;20.90;36.30;;;;;;8334148;28;19917;-44
2023/03/31 06:53:55;;;;;;;;;;;20.90;36.30;;;;;;8333553;28;20290;-45
2023/03/31 06:57:55;;;;;;;;;;;20.90;36.40;;;;;;8334144;28;20422;-46
2023/03/31 07:01:56;;;;;;;;;;;20.90;36.40;;;;;;8333727;28;19921;-45
2023/03/31 07:05:57;;;;;;;;;;;20.90;36.30;;;;;;8332201;28;20024;-45
2023/03/31 07:09:57;;;;;;;;;;;20.90;36.30;;;;;;8333811;28;20000;-46
2023/03/31 07:13:57;;;;;;;;;;;20.90;36.40;;;;;;8333458;28;19923;-45
2023/03/31 07:18:01;;;;;;;;;;;20.90;36.40;;;;;;8332330;28;19923;-46
2023/03/31 07:22:01;;;;;;;;;;;20.90;36.90;;;;;;8333435;28;19921;-45
2023/03/31 07:26:02;;;;;;;;;;;20.90;36.30;;;;;;8332684;28;20028;-44
2023/03/31 07:30:03;;;;;;;;;;;20.90;36.30;;;;;;8332967;28;19917;-45
2023/03/31 07:34:04;;;;;;;;;;;20.90;36.30;;;;;;8332615;28;19924;-45
2023/03/31 07:38:05;;;;;;;;;;;20.90;36.30;;;;;;8332324;28;19917;-45
2023/03/31 07:42:05;;;;;;;;;;;21.00;36.30;;;;;;8332898;28;19953;-45
2023/03/31 07:46:07;;;;;;;;;;;21.00;36.20;;;;;;8332672;28;20386;-43
2023/03/31 07:50:07;;;;;;;;;;;21.00;36.10;;;;;;8331910;28;19940;-45
2023/03/31 07:54:08;;;;;;;;;;;21.00;36.20;;;;;;8331937;28;19917;-44
2023/03/31 07:58:10;;;;;;;;;;;21.00;36.20;;;;;;8332235;28;19921;-44
2023/03/31 08:02:11;;;;;;;;;;;21.00;36.20;;;;;;8331311;28;19967;-45
2023/03/31 08:06:17;;;;;;;;;;;20.90;36.20;;;;;;8331803;28;20001;-45
2023/03/31 08:10:22;;;;;;;;;;;20.90;36.20;;;;;;8331669;28;19917;-44
2023/03/31 08:14:22;;;;;;;;;;;20.90;36.20;;;;;;8331161;28;19988;-45
2023/03/31 08:18:23;;;;;;;;;;;20.90;36.20;;;;;;8331319;28;19917;-45
2023/03/31 08:22:24;;;;;;;;;;;20.90;36.30;;;;;;8331323;28;20469;-45
2023/03/31 08:26:24;;;;;;;;;;;20.90;36.30;;;;;;8330663;28;19921;-45
2023/03/31 08:30:24;;;;;;;;;;;20.90;36.40;;;;;;8330076;28;19925;-46
2023/03/31 08:34:26;;;;;;;;;;;20.90;36.40;;;;;;8330870;28;19996;-45
2023/03/31 08:38:26;;;;;;;;;;;20.90;36.30;;;;;;8330404;28;20382;-45
2023/03/31 08:42:35;;;;;;;;;;;20.90;36.30;;;;;;8330791;28;19918;-43
2023/03/31 08:46:37;;;;;;;;;;;20.80;36.30;;;;;;8330851;28;19943;-45
2023/03/31 08:50:42;;;;;;;;;;;20.90;36.30;;;;;;8330201;28;19924;-45
2023/03/31 08:54:43;;;;;;;;;;;20.80;36.30;;;;;;8330413;28;19917;-46
2023/03/31 08:58:46;;;;;;;;;;;20.80;36.40;;;;;;8330716;28;19925;-45
2023/03/31 09:03:01;;;;;;;;;;;20.80;36.40;;;;;;8329532;28;19930;-43
2023/03/31 09:07:08;;;;;;;;;;;20.80;36.50;;;;;;8330272;28;19925;-46
2023/03/31 09:11:24;;;;;;;;;;;20.70;36.40;;;;;;8296996;28;19918;-46
2023/03/31 09:15:27;;;;;;;;;;;20.70;36.50;;;;;;8324438;28;19949;-45
2023/03/31 09:19:27;;;;;;;;;;;20.70;36.50;;;;;;8329994;28;19917;-44
2023/03/31 09:23:31;;;;;;;;;;;20.70;36.50;;;;;;8329323;28;19922;-45
2023/03/31 09:27:35;;;;;;;;;;;20.70;36.50;;;;;;8330028;28;20298;-44
2023/03/31 09:31:37;;;;;;;;;;;20.70;36.50;;;;;;8329879;28;19920;-46
2023/03/31 09:35:38;;;;;;;;;;;20.70;36.50;;;;;;8329225;28;19921;-46
2023/03/31 09:39:39;;;;;;;;;;;20.70;36.60;;;;;;8329614;28;20020;-48
2023/03/31 09:43:40;;;;;;;;;;;20.70;36.60;;;;;;8334337;28;19944;-45
2023/03/31 09:47:42;;;;;;;;;;;20.70;36.60;;;;;;8335802;28;19913;-46
2023/03/31 09:51:44;;;;;;;;;;;20.70;36.60;;;;;;8336075;28;19917;-45
2023/03/31 09:55:52;;;;;;;;;;;20.70;36.60;;;;;;8335518;28;19917;-46
2023/03/31 10:00:00;;;;;;;;;;;20.80;36.70;;;;;;8335181;28;20361;-43
2023/03/31 10:04:04;;;;;;;;;;;20.80;36.70;;;;;;8335569;28;19920;-47
2023/03/31 10:08:13;;;;;;;;;;;20.70;36.60;;;;;;8333993;28;19921;-44
2023/03/31 10:12:15;;;;;;;;;;;20.70;36.60;;;;;;8335423;28;19921;-47
2023/03/31 10:16:41;;;;;;;;;;;20.80;36.60;;;;;;8335254;28;20375;-45
2023/03/31 10:20:43;;;;;;;;;;;20.80;36.60;;;;;;8330592;28;19921;-45
2023/03/31 10:24:45;;;;;;;;;;;20.80;36.60;;;;;;8335004;28;20038;-46
2023/03/31 10:28:48;;;;;;;;;;;20.80;36.60;;;;;;8334923;28;19924;-44
2023/03/31 10:32:49;;;;;;;;;;;20.80;36.60;;;;;;8334449;28;19913;-45
2023/03/31 10:36:50;;;;;;;;;;;20.70;36.50;;;;;;8335192;28;20428;-47
2023/03/31 10:40:53;;;;;;;;;;;20.70;36.60;;;;;;8334519;28;19917;-45
2023/03/31 10:45:22;;;;;;;;;;;20.70;36.60;;;;;;8333875;28;19925;-46
2023/03/31 10:49:24;;;;;;;;;;;20.80;36.50;;;;;;8334468;28;19917;-46
2023/03/31 10:53:25;;;;;;;;;;;20.80;36.50;;;;;;8332919;28;19917;-45
2023/03/31 10:57:45;;;;;;;;;;;20.80;36.40;;;;;;8334605;28;19920;-45
2023/03/31 11:02:04;;;;;;;;;;;20.80;36.40;;;;;;8319796;28;20275;-46
2023/03/31 11:06:15;;;;;;;;;;;20.90;36.40;;;;;;8333421;28;19986;-47
2023/03/31 11:10:15;;;;;;;;;;;20.80;36.30;;;;;;8333782;28;19964;-46
2023/03/31 11:14:24;;;;;;;;;;;20.90;36.30;;;;;;8333053;28;20016;-45
2023/03/31 11:18:28;;;;;;;;;;;20.90;36.20;;;;;;8333329;28;20008;-46
2023/03/31 11:22:37;;;;;;;;;;;20.90;36.20;;;;;;8333337;28;19913;-45
2023/03/31 11:26:38;;;;;;;;;;;20.90;36.10;;;;;;8332765;28;19979;-46
2023/03/31 11:30:51;;;;;;;;;;;20.90;36.10;;;;;;8333055;28;19921;-46
2023/03/31 11:34:55;;;;;;;;;;;20.90;36.00;;;;;;8332870;28;19978;-45
2023/03/31 11:39:02;;;;;;;;;;;21.00;36.00;;;;;;8332090;28;19924;-45
2023/03/31 11:43:06;;;;;;;;;;;21.00;35.90;;;;;;8332856;28;19995;-45
2023/03/31 11:47:09;;;;;;;;;;;21.00;35.80;;;;;;8332118;28;19925;-45
2023/03/31 11:51:15;;;;;;;;;;;21.00;35.80;;;;;;8332543;28;19949;-46
2023/03/31 11:55:17;;;;;;;;;;;21.00;35.70;;;;;;8332167;28;19922;-45
2023/03/31 11:59:19;;;;;;;;;;;21.00;35.70;;;;;;8331767;28;20007;-45
2023/03/31 12:03:19;;;;;;;;;;;21.00;35.60;;;;;;8320879;28;19936;-42
2023/03/31 12:07:28;;;;;;;;;;;20.90;35.50;;;;;;8314406;28;20000;-42
2023/03/31 12:11:47;;;;;;;;;;;20.90;35.60;;;;;;8312229;28;19917;-45
2023/03/31 12:16:14;;;;;;;;;;;20.90;35.60;;;;;;8325948;28;19917;-44
2023/03/31 12:20:22;;;;;;;;;;;20.90;35.60;;;;;;8321049;28;20651;-46
2023/03/31 12:24:22;;;;;;;;;;;20.90;35.70;;;;;;8323730;28;19931;-46
2023/03/31 12:28:23;;;;;;;;;;;20.90;35.70;;;;;;8325566;28;20603;-46
2023/03/31 12:32:30;;;;;;;;;;;20.80;35.80;;;;;;8325483;28;19917;-46
2023/03/31 12:36:50;;;;;;;;;;;20.80;35.80;;;;;;8321900;28;19918;-50
2023/03/31 12:41:11;;;;;;;;;;;20.80;35.80;;;;;;8312582;28;19920;-46
2023/03/31 12:45:23;;;;;;;;;;;20.80;35.90;;;;;;8320605;28;20410;-45
2023/03/31 12:49:31;;;;;;;;;;;20.90;35.90;;;;;;8321137;28;19964;-47
2023/03/31 12:53:31;;;;;;;;;;;20.90;35.90;;;;;;8320448;28;19918;-46
2023/03/31 12:57:32;;;;;;;;;;;20.90;35.90;;;;;;8319289;28;20024;-46
2023/03/31 13:01:32;;;;;;;;;;;20.90;35.80;;;;;;8316238;28;19929;-46
2023/03/31 13:05:36;;;;;;;;;;;20.90;35.80;;;;;;8328143;28;19987;-46
2023/03/31 13:09:41;;;;;;;;;;;20.90;35.80;;;;;;8325557;28;19921;-46
2023/03/31 13:13:51;;;;;;;;;;;20.90;35.80;;;;;;8321011;28;19948;-46
2023/03/31 13:17:55;;;;;;;;;;;20.90;35.80;;;;;;8315895;28;19960;-45
2023/03/31 13:21:56;;;;;;;;;;;20.90;35.80;;;;;;8311607;28;19917;-45
2023/03/31 13:25:57;;;;;;;;;;;20.90;35.80;;;;;;8321026;28;19951;-45
2023/03/31 13:29:58;;;;;;;;;;;20.90;35.70;;;;;;8313629;28;19924;-47
2023/03/31 13:34:00;;;;;;;;;;;20.90;35.70;;;;;;8320385;28;20305;-45
2023/03/31 13:38:07;;;;;;;;;;;20.90;35.80;;;;;;8322214;28;19925;-43
2023/03/31 13:42:21;;;;;;;;;;;20.90;35.80;;;;;;8319979;28;19921;-47
2023/03/31 13:46:40;;;;;;;;;;;20.90;35.70;;;;;;8313137;28;19937;-45
2023/03/31 13:50:46;;;;;;;;;;;20.90;35.70;;;;;;8314413;28;19925;-46
2023/03/31 13:55:06;;;;;;;;;;;20.90;35.70;;;;;;8327186;28;19925;-46
2023/03/31 13:59:15;;;;;;;;;;;20.90;35.70;;;;;;8312870;28;19921;-45
2023/03/31 14:03:19;;;;;;;;;;;20.90;35.70;;;;;;8319679;28;19921;-46
2023/03/31 14:07:21;;;;;;;;;;;20.90;35.70;;;;;;8307081;28;19934;-49
2023/03/31 14:11:25;;;;;;;;;;;20.90;35.70;;;;;;8317640;28;20016;-45
2023/03/31 14:15:28;;;;;;;;;;;20.90;35.70;;;;;;8326774;28;19913;-43
2023/03/31 14:19:40;;;;;;;;;;;20.90;35.70;;;;;;8325547;28;19917;-46
2023/03/31 14:23:47;;;;;;;;;;;20.90;35.70;;;;;;8313674;28;19921;-46
2023/03/31 14:27:48;;;;;;;;;;;20.90;35.70;;;;;;8306305;28;19965;-46
2023/03/31 14:31:49;;;;;;;;;;;20.90;35.70;;;;;;8321866;28;19925;-46
2023/03/31 14:35:54;;;;;;;;;;;20.90;35.80;;;;;;8318807;28;19921;-45
2023/03/31 14:39:57;;;;;;;;;;;20.80;35.80;;;;;;8320520;28;19921;-46
2023/03/31 14:44:00;;;;;;;;;;;20.80;35.90;;;;;;8328907;28;19921;-45
2023/03/31 14:48:12;;;;;;;;;;;20.80;36.50;;;;;;8315939;28;19925;-46
2023/03/31 14:52:14;;;;;;;;;;;20.80;36.00;;;;;;8324165;28;20393;-45
2023/03/31 14:56:19;;;;;;;;;;;20.80;36.00;;;;;;8320347;28;19924;-46
2023/03/31 15:00:30;;;;;;;;;;;20.80;35.90;;;;;;8326106;28;19972;-46
2023/03/31 15:04:35;;;;;;;;;;;20.80;35.90;;;;;;8313273;28;19925;-46
2023/03/31 15:08:36;;;;;;;;;;;20.80;36.00;;;;;;8329459;28;19917;-46
2023/03/31 15:12:37;;;;;;;;;;;20.80;36.00;;;;;;8333669;28;19992;-45
2023/03/31 15:16:41;;;;;;;;;;;20.90;35.80;;;;;;8325661;28;19961;-46
2023/03/31 15:20:43;;;;;;;;;;;20.90;35.60;;;;;;8318204;28;20371;-46
2023/03/31 15:24:43;;;;;;;;;;;21.00;35.60;;;;;;8316415;28;19932;-47
2023/03/31 15:28:55;;;;;;;;;;;21.10;35.60;;;;;;8331263;28;20362;-46
2023/03/31 15:32:56;;;;;;;;;;;21.20;35.60;;;;;;8313246;28;19924;-46
2023/03/31 15:36:56;;;;;;;;;;;21.20;35.60;;;;;;8320021;28;19918;-47
2023/03/31 15:40:58;;;;;;;;;;;21.30;35.70;;;;;;8315474;28;19917;-46
2023/03/31 15:45:17;;;;;;;;;;;21.30;35.60;;;;;;8325381;28;20031;-46
2023/03/31 15:49:21;;;;;;;;;;;21.40;35.60;;;;;;8316402;28;19925;-46
2023/03/31 15:53:27;;;;;;;;;;;21.40;35.70;;;;;;8299273;28;19921;-46
2023/03/31 15:57:33;;;;;;;;;;;21.50;35.70;;;;;;8321276;28;19917;-46
2023/03/31 16:01:37;;;;;;;;;;;21.50;35.70;;;;;;8324776;28;19944;-47
2023/03/31 16:05:45;;;;;;;;;;;21.50;35.70;;;;;;8313990;28;19948;-46
2023/03/31 16:09:55;;;;;;;;;;;21.40;35.50;;;;;;8325231;28;20063;-43
2023/03/31 16:13:58;;;;;;;;;;;21.40;35.50;;;;;;8312125;28;19917;-45
2023/03/31 16:18:04;;;;;;;;;;;21.40;36.10;;;;;;8328686;28;19928;-45
2023/03/31 16:22:04;;;;;;;;;;;21.40;35.60;;;;;;8324838;28;19918;-45
2023/03/31 16:26:06;;;;;;;;;;;21.40;35.70;;;;;;8327448;28;19936;-44
2023/03/31 16:30:12;;;;;;;;;;;21.40;35.70;;;;;;8328893;28;19931;-43
2023/03/31 16:34:12;;;;;;;;;;;21.30;35.60;;;;;;8326883;28;19964;-45
2023/03/31 16:38:15;;;;;;;;;;;21.30;35.60;;;;;;8324977;28;20390;-45
2023/03/31 16:42:15;;;;;;;;;;;21.30;35.70;;;;;;8319905;28;19917;-44
2023/03/31 16:46:16;;;;;;;;;;;21.20;35.70;;;;;;8316058;28;19925;-45
2023/03/31 16:50:16;;;;;;;;;;;21.20;35.70;;;;;;8324143;28;19917;-44
2023/03/31 16:54:17;;;;;;;;;;;21.20;35.70;;;;;;8323476;28;19925;-45
2023/03/31 16:58:17;;;;;;;;;;;21.20;35.70;;;;;;8328224;28;19917;-45
2023/03/31 17:02:18;;;;;;;;;;;21.20;35.70;;;;;;8325925;28;19921;-44
2023/03/31 17:06:18;;;;;;;;;;;21.20;35.60;;;;;;8316966;28;19925;-46
2023/03/31 17:10:19;;;;;;;;;;;21.20;35.70;;;;;;8323333;28;19917;-44
2023/03/31 17:14:20;;;;;;;;;;;21.20;35.70;;;;;;8316111;28;19931;-45
2023/03/31 17:18:20;;;;;;;;;;;21.20;35.70;;;;;;8326251;28;19917;-44
2023/03/31 17:22:21;;;;;;;;;;;21.10;35.70;;;;;;8323505;28;19921;-45
2023/03/31 17:26:22;;;;;;;;;;;21.10;35.70;;;;;;8312434;28;19929;-45
2023/03/31 17:30:22;;;;;;;;;;;21.10;35.70;;;;;;8329538;28;19985;-45
2023/03/31 17:34:23;;;;;;;;;;;21.10;35.60;;;;;;8320284;28;19917;-46
2023/03/31 17:38:24;;;;;;;;;;;21.10;35.70;;;;;;8326189;28;19917;-44
2023/03/31 17:42:25;;;;;;;;;;;21.10;35.70;;;;;;8320593;28;19917;-45
2023/03/31 17:46:26;;;;;;;;;;;21.10;35.60;;;;;;8316984;28;19933;-45
2023/03/31 17:50:26;;;;;;;;;;;21.10;35.60;;;;;;8303843;28;19971;-46
2023/03/31 17:54:27;;;;;;;;;;;21.10;35.60;;;;;;8309180;28;20264;-47
2023/03/31 17:58:28;;;;;;;;;;;21.10;35.70;;;;;;8320216;28;19928;-48
2023/03/31 18:02:28;;;;;;;;;;;21.10;35.70;;;;;;8311313;28;19928;-45
2023/03/31 18:06:29;;;;;;;;;;;21.10;35.70;;;;;;8330659;28;19978;-46
2023/03/31 18:10:30;;;;;;;;;;;21.10;35.60;;;;;;8330346;28;19991;-47
2023/03/31 18:14:31;;;;;;;;;;;21.10;35.70;;;;;;8313176;28;19921;-47
2023/03/31 18:18:32;;;;;;;;;;;21.00;35.60;;;;;;8307681;28;20004;-46
2023/03/31 18:22:32;;;;;;;;;;;21.00;35.60;;;;;;8323567;28;20401;-45
2023/03/31 18:26:33;;;;;;;;;;;21.00;35.60;;;;;;8317921;28;19925;-45
2023/03/31 18:30:33;;;;;;;;;;;21.00;35.60;;;;;;8301740;28;19917;-45
2023/03/31 18:34:35;;;;;;;;;;;21.00;35.70;;;;;;8328728;28;19952;-45
2023/03/31 18:38:35;;;;;;;;;;;21.00;35.70;;;;;;8323554;28;20469;-47
2023/03/31 18:42:36;;;;;;;;;;;21.00;35.70;;;;;;8318418;28;19960;-46
2023/03/31 18:46:37;;;;;;;;;;;21.00;35.60;;;;;;8334311;28;19926;-46
2023/03/31 18:50:37;;;;;;;;;;;21.00;35.70;;;;;;8334197;28;20363;-46
2023/03/31 18:54:38;;;;;;;;;;;21.00;35.70;;;;;;8333816;28;20020;-45
2023/03/31 18:58:38;;;;;;;;;;;21.00;35.70;;;;;;8334288;28;19956;-45
2023/03/31 19:02:39;;;;;;;;;;;21.00;35.70;;;;;;8333493;28;19921;-44
2023/03/31 19:06:40;;;;;;;;;;;21.00;35.70;;;;;;8309372;28;20298;-46
2023/03/31 19:10:40;;;;;;;;;;;20.90;35.70;;;;;;8333879;28;19921;-46
2023/03/31 19:14:41;;;;;;;;;;;20.90;35.70;;;;;;8332386;28;19918;-45
2023/03/31 19:18:42;;;;;;;;;;;20.90;35.60;;;;;;8333824;28;19971;-46
2023/03/31 19:22:44;;;;;;;;;;;20.90;35.60;;;;;;8333696;28;19992;-45
2023/03/31 19:26:44;;;;;;;;;;;20.90;35.60;;;;;;8332917;28;19933;-45
2023/03/31 19:30:46;;;;;;;;;;;20.90;35.60;;;;;;8333286;28;19920;-44
2023/03/31 19:34:47;;;;;;;;;;;20.90;35.60;;;;;;8333115;28;20341;-44
2023/03/31 19:38:47;;;;;;;;;;;20.90;35.60;;;;;;8332424;28;19917;-46
2023/03/31 19:42:48;;;;;;;;;;;20.90;35.60;;;;;;8333064;28;19919;-44
2023/03/31 19:46:48;;;;;;;;;;;20.90;35.60;;;;;;8332593;28;20379;-45
2023/03/31 19:50:50;;;;;;;;;;;20.90;35.70;;;;;;8332230;28;19913;-44
2023/03/31 19:54:50;;;;;;;;;;;20.90;35.60;;;;;;8332487;28;20298;-45
2023/03/31 19:58:51;;;;;;;;;;;20.90;35.60;;;;;;8332297;28;19913;-45
2023/03/31 20:02:51;;;;;;;;;;;20.90;35.60;;;;;;8331527;28;19921;-45
2023/03/31 20:06:52;;;;;;;;;;;20.90;35.60;;;;;;8332204;28;20404;-45
2023/03/31 20:10:57;;;;;;;;;;;20.90;35.60;;;;;;8332083;28;20451;-46
2023/03/31 20:14:57;;;;;;;;;;;20.90;35.60;;;;;;8331516;28;19925;-46
2023/03/31 20:18:59;;;;;;;;;;;20.90;35.60;;;;;;8331567;28;19917;-46
2023/03/31 20:22:59;;;;;;;;;;;20.90;35.60;;;;;;8331807;28;19924;-45
2023/03/31 20:27:00;;;;;;;;;;;20.90;35.60;;;;;;8330925;28;20401;-45
2023/03/31 20:31:09;;;;;;;;;;;20.90;35.60;;;;;;8331537;28;19913;-46
2023/03/31 20:35:09;;;;;;;;;;;20.90;35.60;;;;;;8330718;28;19963;-45
2023/03/31 20:39:11;;;;;;;;;;;20.80;35.60;;;;;;8331359;28;19974;-45
2023/03/31 20:43:12;;;;;;;;;;;20.90;35.60;;;;;;8341496;28;19923;-45
2023/03/31 20:47:13;;;;;;;;;;;20.90;35.70;;;;;;8359641;28;19929;-46
2023/03/31 20:51:15;;;;;;;;;;;20.90;35.60;;;;;;8330953;28;19913;-46
2023/03/31 20:55:15;;;;;;;;;;;20.90;35.60;;;;;;8330899;28;20407;-46
2023/03/31 20:59:16;;;;;;;;;;;20.90;36.10;;;;;;8330233;28;19964;-46
2023/03/31 21:03:16;;;;;;;;;;;20.90;35.50;;;;;;8330828;28;19932;-46
2023/03/31 21:07:17;;;;;;;;;;;20.90;35.50;;;;;;8330464;28;20010;-45
2023/03/31 21:11:21;;;;;;;;;;;20.90;35.50;;;;;;8329429;28;21278;-46
2023/03/31 21:15:21;;;;;;;;;;;21.00;35.60;;;;;;8330584;28;19917;-47
2023/03/31 21:19:22;;;;;;;;;;;20.90;35.50;;;;;;8312446;28;20409;-47
2023/03/31 21:23:23;;;;;;;;;;;20.90;35.50;;;;;;8329735;28;19918;-46
2023/03/31 21:27:24;;;;;;;;;;;20.90;35.60;;;;;;8329890;28;20295;-47
2023/03/31 21:31:24;;;;;;;;;;;20.90;35.50;;;;;;8330203;28;19925;-46
2023/03/31 21:35:24;;;;;;;;;;;20.90;35.50;;;;;;8329320;28;20011;-46
2023/03/31 21:39:26;;;;;;;;;;;20.90;35.50;;;;;;8334221;28;20294;-46
2023/03/31 21:43:27;;;;;;;;;;;20.90;35.60;;;;;;8336708;28;19913;-44
2023/03/31 21:47:27;;;;;;;;;;;20.80;35.60;;;;;;8336091;28;20015;-45
2023/03/31 21:51:28;;;;;;;;;;;20.80;35.70;;;;;;8336922;28;19917;-45
2023/03/31 21:55:28;;;;;;;;;;;20.80;35.70;;;;;;8336338;28;19917;-45
2023/03/31 21:59:29;;;;;;;;;;;20.80;35.70;;;;;;8335578;28;19963;-45
2023/03/31 22:03:32;;;;;;;;;;;20.80;35.70;;;;;;8325201;28;19928;-45
2023/03/31 22:07:33;;;;;;;;;;;20.80;35.70;;;;;;8322992;28;19926;-45
2023/03/31 22:11:33;;;;;;;;;;;20.80;35.70;;;;;;8335590;28;19920;-45
2023/03/31 22:15:34;;;;;;;;;;;20.70;35.60;;;;;;8335513;28;19917;-45
2023/03/31 22:19:34;;;;;;;;;;;20.70;35.60;;;;;;8335571;28;19924;-43
2023/03/31 22:23:35;;;;;;;;;;;20.70;35.70;;;;;;8334836;28;19971;-46
2023/03/31 22:27:35;;;;;;;;;;;20.70;35.70;;;;;;8335122;28;20298;-46
2023/03/31 22:31:36;;;;;;;;;;;20.70;35.70;;;;;;8335566;28;19920;-45
2023/03/31 22:35:36;;;;;;;;;;;20.70;35.70;;;;;;8334397;28;19917;-45
2023/03/31 22:39:37;;;;;;;;;;;20.60;35.60;;;;;;8334895;28;20343;-44
2023/03/31 22:43:38;;;;;;;;;;;20.60;35.70;;;;;;8334631;28;20406;-45
2023/03/31 22:47:41;;;;;;;;;;;20.60;35.70;;;;;;8334265;28;20297;-44
2023/03/31 22:51:42;;;;;;;;;;;20.60;35.70;;;;;;8333415;28;19920;-44
2023/03/31 22:55:44;;;;;;;;;;;20.60;35.70;;;;;;8334435;28;20382;-44
2023/03/31 22:59:44;;;;;;;;;;;20.60;35.70;;;;;;8333773;28;20333;-44
2023/03/31 23:03:45;;;;;;;;;;;20.60;35.70;;;;;;8334058;28;19928;-45
2023/03/31 23:07:46;;;;;;;;;;;20.60;35.80;;;;;;8334214;28;20393;-45
2023/03/31 23:11:46;;;;;;;;;;;20.50;35.70;;;;;;8333602;28;19913;-44
2023/03/31 23:15:47;;;;;;;;;;;20.50;35.80;;;;;;8333918;28;19924;-44
2023/03/31 23:19:47;;;;;;;;;;;20.50;35.80;;;;;;8333558;28;19917;-45
2023/03/31 23:23:49;;;;;;;;;;;20.50;35.90;;;;;;8332971;28;19921;-45
2023/03/31 23:27:49;;;;;;;;;;;20.40;35.80;;;;;;8333795;28;20414;-44
2023/03/31 23:31:50;;;;;;;;;;;20.40;35.90;;;;;;8333381;28;19917;-45
2023/03/31 23:35:52;;;;;;;;;;;20.40;35.90;;;;;;8332494;28;19939;-45